»·PEaware :: N478GF L52-L88

N478GF :: L52-L88

FLIGHT INFORMATION

Flight Status: Arrived
Operator: Privately registered:
United States
More flights under this callsign
Pilot: Aaron H. (20539)
Aircraft: CESSNA 172 SKYHAWK
(C172)
More flights by this aircraft type
Origin: L52 Oceano Co
United States
Destination: L88 New Cuyama
United States
More flights between these airports :: More routes between these airports
Route:
File this flight plan on PilotEdge
Remarks:
Altitude:
(Current/Filed)
5,000ft
Speed:
(Current/Filed)
130kts
Departed: 25-Sep-18 11:01 AM
Arrived: 25-Sep-18 11:34 AM
Distance/Time
Traveled:
47nm/0:33
Distance/Time
To Go:
Arrived

Flight Plot

Page will automatically refresh every two minutes.


Map Options




Map Legend


Flown Route
Filed Route
Departure Airport
Arrival Airport
Navaid (VOR, NDB)
Fix

Horizontal Profiles

Position Reports

Time Latitude Longitude Heading Altitude Ground
Speed
25-Sep-18 10:44 35.103552 -120.624284 214 15ft 0kts
25-Sep-18 10:45 35.103552 -120.624284 214 15ft 0kts
25-Sep-18 10:46 35.103552 -120.624284 214 15ft 0kts
25-Sep-18 10:47 35.103552 -120.624284 214 15ft 0kts
25-Sep-18 10:48 35.103552 -120.624284 214 15ft 0kts
25-Sep-18 10:49 35.103552 -120.624284 214 15ft 0kts
25-Sep-18 10:50 35.103552 -120.624284 214 15ft 0kts
25-Sep-18 10:51 35.103552 -120.624284 214 15ft 0kts
25-Sep-18 10:52 35.103552 -120.624284 214 15ft 0kts
25-Sep-18 10:53 35.103552 -120.624284 214 15ft 0kts
25-Sep-18 10:54 35.103552 -120.624284 214 15ft 0kts
25-Sep-18 10:55 35.103539 -120.624295 212 15ft 0kts
25-Sep-18 10:56 35.103508 -120.625053 283 14ft 0kts
25-Sep-18 10:57 35.103508 -120.625053 283 14ft 0kts
25-Sep-18 10:58 35.103508 -120.625053 283 14ft 0kts
25-Sep-18 10:59 35.103508 -120.625053 283 14ft 0kts
25-Sep-18 11:00 35.103508 -120.625054 283 14ft 0kts
25-Sep-18 11:01 35.103508 -120.625053 283 14ft 0kts
25-Sep-18 11:02 35.103509 -120.625084 266 14ft 1kts
25-Sep-18 11:03 35.102158 -120.623451 124 15ft 57kts
25-Sep-18 11:04 35.094747 -120.603778 84 848ft 91kts
25-Sep-18 11:05 35.093739 -120.577076 112 1925ft 87kts
25-Sep-18 11:06 35.085144 -120.551138 110 2976ft 82kts
25-Sep-18 11:07 35.081049 -120.523432 101 3680ft 96kts
25-Sep-18 11:08 35.069359 -120.500001 128 4277ft 99kts
25-Sep-18 11:09 35.053167 -120.472300 127 4843ft 109kts
25-Sep-18 11:10 35.035305 -120.442265 119 5252ft 109kts
25-Sep-18 11:11 35.036361 -120.405898 79 5650ft 109kts
25-Sep-18 11:12 35.042205 -120.368127 78 5858ft 117kts
25-Sep-18 11:13 35.047137 -120.329938 82 5931ft 122kts
25-Sep-18 11:14 35.033220 -120.297087 119 5929ft 123kts
25-Sep-18 11:15 35.039728 -120.257179 62 5882ft 126kts
25-Sep-18 11:16 35.055348 -120.219899 64 5916ft 124kts
25-Sep-18 11:17 35.069773 -120.181624 65 5929ft 123kts
25-Sep-18 11:18 35.082769 -120.142782 70 5934ft 124kts
25-Sep-18 11:19 35.093289 -120.102599 79 5936ft 124kts
25-Sep-18 11:20 35.090095 -120.061004 104 5945ft 124kts
25-Sep-18 11:21 35.074108 -120.023935 131 5915ft 124kts
25-Sep-18 11:22 35.054473 -119.989851 122 5955ft 124kts
25-Sep-18 11:23 35.035086 -119.955027 124 5949ft 121kts
25-Sep-18 11:24 35.014578 -119.921378 127 5353ft 125kts
25-Sep-18 11:25 34.998507 -119.884798 117 4742ft 122kts
25-Sep-18 11:26 34.985030 -119.846650 113 4095ft 124kts
25-Sep-18 11:27 34.970773 -119.812730 120 3860ft 105kts
25-Sep-18 11:28 34.959598 -119.780044 111 3882ft 108kts
25-Sep-18 11:29 34.947543 -119.746485 115 3889ft 109kts
25-Sep-18 11:30 34.936374 -119.713129 98 3956ft 103kts
25-Sep-18 11:31 34.948301 -119.682551 44 3806ft 111kts
25-Sep-18 11:32 34.934268 -119.684757 263 3177ft 117kts
25-Sep-18 11:33 34.939169 -119.712952 302 3011ft 90kts
25-Sep-18 11:34 34.956375 -119.722640 112 2785ft 83kts
25-Sep-18 11:35 34.945500 -119.699120 117 2329ft 68kts
25-Sep-18 11:36 34.940351 -119.686544 120 2172ft 10kts
25-Sep-18 11:37 34.941399 -119.689134 296 2162ft 27kts
25-Sep-18 11:38 34.942735 -119.690860 118 2155ft 4kts
25-Sep-18 11:39 34.942630 -119.690579 25 2156ft 0kts
25-Sep-18 11:40 34.942630 -119.690579 25 2156ft 0kts
25-Sep-18 11:41 34.942630 -119.690579 25 2156ft 0kts
25-Sep-18 11:42 34.942630 -119.690579 25 2156ft 0kts
25-Sep-18 11:43 34.942630 -119.690579 25 2156ft 0kts
25-Sep-18 11:44 34.942630 -119.690579 25 2156ft 0kts
25-Sep-18 11:45 34.942630 -119.690579 25 2156ft 0kts
25-Sep-18 11:46 34.942630 -119.690579 25 2156ft 0kts
25-Sep-18 11:47 34.942630 -119.690579 25 2156ft 0kts
25-Sep-18 11:48 34.942630 -119.690579 25 2156ft 0kts

Navigation Log

Ident Type
Flight plan parsing failed, navigation log unavailable